createdAt,value
2023-01-13T00:00:50.260Z,8.88
2023-01-13T00:03:53.283Z,8.52
2023-01-13T00:06:55.971Z,8.33
2023-01-13T00:09:58.676Z,8.10
2023-01-13T00:13:03.354Z,9.55
2023-01-13T00:16:10.396Z,9.45
2023-01-13T00:19:13.273Z,8.48
2023-01-13T00:22:16.015Z,8.30
2023-01-13T00:25:18.700Z,8.00
2023-01-13T00:28:21.415Z,8.07
2023-01-13T00:31:24.161Z,10.10
2023-01-13T00:34:26.848Z,7.82
2023-01-13T00:37:29.694Z,8.13
2023-01-13T00:40:33.376Z,8.65
2023-01-13T00:43:37.612Z,10.05
2023-01-13T00:46:40.455Z,7.85
2023-01-13T00:49:43.755Z,8.93
2023-01-13T00:52:47.457Z,8.17
2023-01-13T00:55:50.324Z,7.95
2023-01-13T00:58:54.289Z,8.95
2023-01-13T01:01:57.131Z,9.25
2023-01-13T01:05:01.144Z,7.60
2023-01-13T01:08:04.139Z,9.70
2023-01-13T01:11:09.909Z,7.38
2023-01-13T01:14:14.482Z,8.63
2023-01-13T01:17:17.192Z,7.60
2023-01-13T01:20:20.874Z,6.88
2023-01-13T01:23:23.815Z,7.27
2023-01-13T01:26:28.272Z,9.85
2023-01-13T01:29:31.120Z,8.27
2023-01-13T01:32:34.970Z,7.35
2023-01-13T01:35:41.461Z,8.07
2023-01-13T01:38:45.185Z,7.40
2023-01-13T01:42:06.630Z,8.02
2023-01-13T01:45:20.918Z,7.53
2023-01-13T01:48:23.851Z,6.70
2023-01-13T01:51:30.850Z,7.78
2023-01-13T01:54:42.272Z,7.47
2023-01-13T01:58:34.358Z,7.57
2023-01-13T02:01:38.665Z,7.20
2023-01-13T02:04:51.217Z,8.38
2023-01-13T02:07:57.065Z,7.72
2023-01-13T02:10:59.796Z,6.70
2023-01-13T02:14:02.468Z,8.50
2023-01-13T02:17:32.949Z,6.97
2023-01-13T02:21:13.960Z,7.25
2023-01-13T02:24:42.072Z,7.40
2023-01-13T02:28:00.045Z,6.73
2023-01-13T02:31:33.801Z,6.90
2023-01-13T02:34:46.140Z,7.00
2023-01-13T02:37:49.689Z,8.52
2023-01-13T02:41:23.887Z,6.63
2023-01-13T02:44:37.572Z,6.37
2023-01-13T02:47:44.247Z,6.13
2023-01-13T02:50:55.908Z,6.30
2023-01-13T02:54:06.786Z,8.50
2023-01-13T02:57:11.761Z,7.43
2023-01-13T03:00:16.610Z,6.77
2023-01-13T03:03:19.561Z,6.53
2023-01-13T03:06:35.497Z,6.53
2023-01-13T03:09:52.387Z,7.47
2023-01-13T03:13:03.994Z,8.60
2023-01-13T03:16:43.617Z,7.00
2023-01-13T03:20:00.736Z,7.18
2023-01-13T03:23:08.044Z,6.05
2023-01-13T03:26:22.721Z,7.43
2023-01-13T03:29:36.200Z,7.38
2023-01-13T03:32:46.528Z,7.40
2023-01-13T03:35:56.268Z,7.32
2023-01-13T03:39:04.132Z,6.18
2023-01-13T03:42:23.879Z,7.00
2023-01-13T03:45:27.562Z,6.30
2023-01-13T03:48:32.954Z,5.97
2023-01-13T03:51:39.257Z,6.53
2023-01-13T03:54:49.563Z,6.75
2023-01-13T03:57:57.934Z,6.25
2023-01-13T04:01:22.404Z,6.63
2023-01-13T04:04:25.188Z,6.10
2023-01-13T04:07:51.902Z,6.90
2023-01-13T04:11:20.333Z,5.88
2023-01-13T04:14:26.004Z,6.53
2023-01-13T04:17:31.989Z,6.50
2023-01-13T04:20:34.956Z,6.90
2023-01-13T04:23:37.685Z,6.65
2023-01-13T04:26:40.321Z,6.25
2023-01-13T04:29:42.999Z,6.00
2023-01-13T04:32:45.654Z,6.20
2023-01-13T04:35:48.312Z,6.07
2023-01-13T04:38:51.783Z,6.15
2023-01-13T04:42:01.374Z,6.53
2023-01-13T04:45:04.421Z,5.95
2023-01-13T04:48:07.256Z,6.25
2023-01-13T04:51:10.111Z,6.10
2023-01-13T04:54:13.609Z,5.97
2023-01-13T04:57:16.239Z,5.50
2023-01-13T05:00:21.267Z,6.15
2023-01-13T05:03:24.505Z,6.30
2023-01-13T05:06:27.107Z,6.57
2023-01-13T05:09:29.920Z,6.60
2023-01-13T05:12:51.782Z,6.50
2023-01-13T05:16:23.961Z,7.63
2023-01-13T05:19:35.109Z,6.82
2023-01-13T05:22:56.641Z,6.40
2023-01-13T05:25:59.451Z,6.00
2023-01-13T05:29:02.237Z,5.82
2023-01-13T05:32:07.851Z,6.18
2023-01-13T05:35:10.539Z,6.13
2023-01-13T05:38:13.666Z,5.70
2023-01-13T05:41:34.984Z,7.15
2023-01-13T05:44:37.904Z,6.10
2023-01-13T05:47:40.655Z,6.40
2023-01-13T05:50:44.890Z,5.85
2023-01-13T05:53:47.515Z,6.03
2023-01-13T05:56:50.143Z,6.10
2023-01-13T05:59:52.881Z,6.63
2023-01-13T06:02:55.634Z,5.63
2023-01-13T06:06:01.763Z,6.72
2023-01-13T06:09:04.549Z,5.97
2023-01-13T06:12:08.329Z,5.72
2023-01-13T06:15:11.891Z,6.07
2023-01-13T06:18:14.569Z,6.68
2023-01-13T06:21:17.234Z,6.00
2023-01-13T06:24:19.843Z,7.17
2023-01-13T06:27:24.071Z,6.90
2023-01-13T06:30:34.943Z,5.72
2023-01-13T06:33:44.500Z,5.80
2023-01-13T06:36:52.003Z,6.07
2023-01-13T06:39:58.804Z,6.83
2023-01-13T06:43:16.544Z,7.53
2023-01-13T06:46:19.712Z,6.57
2023-01-13T06:49:23.957Z,9.35
2023-01-13T06:52:30.433Z,7.80
2023-01-13T06:55:34.392Z,8.07
2023-01-13T06:58:37.334Z,6.25
2023-01-13T07:01:40.150Z,6.43
2023-01-13T07:04:44.489Z,6.72
2023-01-13T07:07:47.254Z,10.07
2023-01-13T07:10:51.388Z,7.03
2023-01-13T07:14:13.026Z,7.75
2023-01-13T07:17:25.511Z,6.70
2023-01-13T07:20:30.917Z,7.10
2023-01-13T07:23:39.940Z,6.35
2023-01-13T07:26:42.563Z,7.10
2023-01-13T07:29:45.390Z,8.38
2023-01-13T07:32:48.383Z,7.60
2023-01-13T07:35:59.845Z,6.43
2023-01-13T07:39:03.391Z,7.40
2023-01-13T07:42:25.494Z,8.53
2023-01-13T07:45:28.555Z,7.72
2023-01-13T07:48:35.713Z,6.60
2023-01-13T07:51:39.711Z,7.63
2023-01-13T07:54:42.422Z,7.55
2023-01-13T07:57:45.269Z,8.70
2023-01-13T08:00:50.333Z,9.73
2023-01-13T08:03:54.703Z,8.45
2023-01-13T08:06:59.449Z,9.15
2023-01-13T08:10:06.481Z,12.13
2023-01-13T08:13:19.997Z,10.07
2023-01-13T08:16:22.825Z,9.82
2023-01-13T08:19:25.469Z,9.63
2023-01-13T08:22:30.413Z,8.98
2023-01-13T08:25:33.192Z,7.57
2023-01-13T08:28:36.297Z,10.07
2023-01-13T08:31:39.086Z,10.10
2023-01-13T08:34:42.021Z,8.40
2023-01-13T08:37:46.433Z,7.65
2023-01-13T08:40:49.065Z,9.02
2023-01-13T08:43:53.925Z,6.47
2023-01-13T08:47:02.344Z,10.15
2023-01-13T08:50:07.992Z,10.82
2023-01-13T08:53:11.558Z,9.27
2023-01-13T08:56:15.764Z,8.88
2023-01-13T08:59:20.050Z,10.13
2023-01-13T09:02:24.728Z,8.68
2023-01-13T09:05:28.306Z,8.63
2023-01-13T09:08:31.038Z,8.55
2023-01-13T09:11:55.537Z,8.82
2023-01-13T09:14:58.630Z,10.57
2023-01-13T09:18:02.780Z,8.73
2023-01-13T09:21:06.326Z,9.75
2023-01-13T09:24:29.398Z,8.23
2023-01-13T09:27:32.415Z,7.18
2023-01-13T09:30:36.646Z,7.27
2023-01-13T09:33:58.254Z,7.28
2023-01-13T09:37:02.869Z,9.10
2023-01-13T09:40:38.779Z,9.90
2023-01-13T09:43:54.164Z,8.93
2023-01-13T09:47:02.929Z,9.87
2023-01-13T09:50:14.325Z,10.82
2023-01-13T09:53:26.127Z,9.02
2023-01-13T09:56:29.190Z,9.93
2023-01-13T09:59:36.493Z,10.50
2023-01-13T10:03:01.851Z,10.13
2023-01-13T10:06:35.770Z,14.88
2023-01-13T10:09:49.434Z,12.88
2023-01-13T10:13:13.504Z,10.57
2023-01-13T10:16:42.397Z,11.55
2023-01-13T10:19:51.333Z,9.83
2023-01-13T10:23:14.300Z,7.63
2023-01-13T10:26:58.681Z,14.75
2023-01-13T10:30:19.585Z,9.55
2023-01-13T10:33:28.601Z,14.05
2023-01-13T10:36:31.528Z,11.17
2023-01-13T10:39:44.093Z,13.82
2023-01-13T10:42:47.772Z,11.63
2023-01-13T10:46:12.212Z,8.05
2023-01-13T10:49:32.099Z,9.38
2023-01-13T10:52:43.902Z,12.80
2023-01-13T10:56:01.617Z,10.10
2023-01-13T10:59:27.414Z,9.48
2023-01-13T11:02:36.287Z,11.73
2023-01-13T11:05:39.298Z,14.45
2023-01-13T11:08:49.339Z,11.83
2023-01-13T11:11:56.090Z,8.43
2023-01-13T11:15:03.170Z,10.85
2023-01-13T11:18:28.949Z,14.60
2023-01-13T11:21:52.502Z,10.10
2023-01-13T11:25:05.349Z,13.70
2023-01-13T11:28:29.684Z,9.38
2023-01-13T11:31:48.297Z,10.85
2023-01-13T11:35:04.486Z,7.38
2023-01-13T11:38:20.465Z,14.25
2023-01-13T11:41:47.060Z,10.53
2023-01-13T11:45:01.675Z,9.25
2023-01-13T11:48:05.651Z,15.85
2023-01-13T11:51:13.992Z,14.30
2023-01-13T11:54:19.472Z,13.93
2023-01-13T11:58:16.495Z,14.10
2023-01-13T12:01:56.646Z,11.93
2023-01-13T12:05:19.471Z,10.27
2023-01-13T12:08:50.333Z,13.60
2023-01-13T12:12:26.681Z,11.68
2023-01-13T12:15:54.249Z,13.27
2023-01-13T12:19:20.178Z,11.95
2023-01-13T12:22:32.018Z,11.93
2023-01-13T12:25:41.409Z,10.68
2023-01-13T12:29:07.566Z,12.68
2023-01-13T12:32:16.740Z,10.20
2023-01-13T12:35:41.300Z,17.05
2023-01-13T12:38:49.093Z,13.50
2023-01-13T12:42:27.754Z,11.85
2023-01-13T12:45:32.948Z,10.65
2023-01-13T12:48:59.697Z,11.23
2023-01-13T12:52:15.280Z,16.08
2023-01-13T12:55:46.488Z,13.63
2023-01-13T12:58:49.438Z,12.15
2023-01-13T13:02:12.270Z,13.57
2023-01-13T13:05:15.981Z,14.70
2023-01-13T13:08:39.456Z,11.90
2023-01-13T13:12:03.649Z,10.27
2023-01-13T13:15:20.674Z,11.70
2023-01-13T13:18:27.560Z,14.27
2023-01-13T13:22:10.032Z,9.20
2023-01-13T13:25:22.800Z,10.52
2023-01-13T13:28:25.655Z,12.43
2023-01-13T13:31:40.279Z,12.25
2023-01-13T13:34:55.146Z,13.68
2023-01-13T13:38:43.098Z,13.60
2023-01-13T13:42:09.222Z,12.32
2023-01-13T13:45:39.122Z,10.30
2023-01-13T13:48:53.846Z,11.27
2023-01-13T13:52:21.219Z,12.07
2023-01-13T13:55:28.793Z,11.13
2023-01-13T13:58:35.626Z,13.60
2023-01-13T14:01:41.422Z,12.13
2023-01-13T14:04:44.601Z,13.80
2023-01-13T14:07:49.880Z,15.02
2023-01-13T14:10:54.167Z,14.00
2023-01-13T14:14:21.107Z,15.43
2023-01-13T14:17:27.493Z,12.27
2023-01-13T14:20:30.975Z,13.52
2023-01-13T14:23:34.212Z,19.98
2023-01-13T14:26:39.426Z,18.97
2023-01-13T14:29:42.829Z,46.50
2023-01-13T14:32:46.056Z,63.80
2023-01-13T14:36:27.592Z,26.67
2023-01-13T14:39:41.166Z,33.42
2023-01-13T14:42:43.877Z,24.70
2023-01-13T14:45:59.127Z,34.50
2023-01-13T14:49:04.044Z,32.38
2023-01-13T14:52:20.355Z,33.97
2023-01-13T14:55:36.500Z,34.15
2023-01-13T14:58:42.991Z,30.47
2023-01-13T15:01:45.819Z,33.03
2023-01-13T15:04:48.878Z,31.52
2023-01-13T15:07:59.439Z,32.00
2023-01-13T15:11:07.833Z,25.85
2023-01-13T15:14:11.487Z,27.37
2023-01-13T15:17:17.543Z,26.55
2023-01-13T15:20:22.642Z,27.73
2023-01-13T15:23:25.325Z,28.33
2023-01-13T15:26:31.465Z,31.13
2023-01-13T15:29:34.142Z,23.57
2023-01-13T15:32:36.718Z,29.73
2023-01-13T15:35:43.021Z,22.42
2023-01-13T15:38:45.605Z,32.60
2023-01-13T15:42:07.571Z,30.05
2023-01-13T15:45:31.290Z,32.60
2023-01-13T15:48:35.784Z,29.05
2023-01-13T15:51:40.303Z,20.25
2023-01-13T15:54:43.186Z,26.67
2023-01-13T15:57:49.898Z,23.60
2023-01-13T16:00:53.608Z,28.07
2023-01-13T16:03:56.612Z,25.35
2023-01-13T16:06:59.625Z,27.08
2023-01-13T16:10:05.038Z,24.10
2023-01-13T16:13:07.744Z,21.67
2023-01-13T16:16:17.654Z,24.50
2023-01-13T16:19:20.404Z,23.25
2023-01-13T16:22:23.259Z,26.77
2023-01-13T16:25:27.295Z,20.65
2023-01-13T16:28:30.186Z,21.75
2023-01-13T16:31:35.075Z,23.70
2023-01-13T16:34:39.040Z,21.38
2023-01-13T16:37:41.717Z,22.88
2023-01-13T16:40:48.196Z,30.38
2023-01-13T16:43:51.358Z,29.60
2023-01-13T16:46:54.145Z,23.27
2023-01-13T16:49:56.836Z,32.58
2023-01-13T16:52:59.927Z,29.55
2023-01-13T16:56:02.853Z,22.55
2023-01-13T16:59:10.720Z,22.55
2023-01-13T17:02:19.649Z,28.90
2023-01-13T17:05:24.003Z,20.88
2023-01-13T17:08:27.122Z,20.85
2023-01-13T17:11:30.534Z,21.10
2023-01-13T17:14:34.186Z,25.38
2023-01-13T17:17:37.761Z,22.37
2023-01-13T17:20:41.349Z,25.50
2023-01-13T17:23:44.491Z,21.25
2023-01-13T17:26:50.530Z,22.50
2023-01-13T17:29:53.920Z,21.33
2023-01-13T17:32:58.936Z,20.37
2023-01-13T17:36:02.629Z,20.73
2023-01-13T17:39:05.607Z,15.40
2023-01-13T17:42:08.367Z,21.10
2023-01-13T17:45:12.519Z,20.67
2023-01-13T17:48:15.337Z,19.87
2023-01-13T17:51:19.110Z,18.35
2023-01-13T17:54:22.865Z,18.70
2023-01-13T17:57:27.151Z,17.20
2023-01-13T18:00:30.378Z,19.48
2023-01-13T18:03:33.237Z,16.83
2023-01-13T18:06:36.253Z,20.08
2023-01-13T18:09:39.232Z,22.75
2023-01-13T18:12:42.080Z,20.13
2023-01-13T18:15:46.970Z,16.65
2023-01-13T18:18:51.861Z,19.43
2023-01-13T18:22:14.676Z,16.52
2023-01-13T18:25:36.528Z,19.95
2023-01-13T18:28:40.216Z,18.38
2023-01-13T18:31:47.179Z,17.88
2023-01-13T18:34:58.697Z,18.53
2023-01-13T18:38:12.852Z,17.50
2023-01-13T18:41:35.242Z,18.35
2023-01-13T18:44:40.066Z,17.30
2023-01-13T18:47:43.105Z,20.35
2023-01-13T18:50:46.605Z,17.73
2023-01-13T18:53:50.983Z,17.67
2023-01-13T18:56:54.496Z,17.63
2023-01-13T18:59:58.310Z,15.77
2023-01-13T19:06:12.442Z,16.83
2023-01-13T19:09:17.394Z,15.88
2023-01-13T19:12:26.479Z,16.42
2023-01-13T19:15:31.087Z,18.90
2023-01-13T19:18:36.529Z,17.80
2023-01-13T19:21:39.637Z,18.87
2023-01-13T19:24:42.489Z,18.52
2023-01-13T19:27:45.973Z,17.48
2023-01-13T19:30:52.372Z,17.77
2023-01-13T19:33:56.714Z,18.55
2023-01-13T19:37:00.432Z,20.97
2023-01-13T19:40:09.444Z,17.25
2023-01-13T19:43:32.307Z,17.88
2023-01-13T19:46:35.612Z,19.13
2023-01-13T19:49:39.029Z,13.88
2023-01-13T19:52:42.934Z,18.23
2023-01-13T19:55:48.931Z,21.40
2023-01-13T19:58:53.815Z,18.63
2023-01-13T20:01:58.325Z,19.15
2023-01-13T20:05:05.911Z,17.50
2023-01-13T20:08:11.001Z,20.20
2023-01-13T20:11:26.561Z,17.52
2023-01-13T20:14:29.839Z,20.13
2023-01-13T20:17:33.153Z,16.80
2023-01-13T20:20:38.223Z,19.08
2023-01-13T20:23:41.251Z,20.67
2023-01-13T20:26:46.202Z,18.20
2023-01-13T20:29:50.343Z,19.55
2023-01-13T20:32:53.553Z,18.25
2023-01-13T20:35:58.755Z,17.77
2023-01-13T20:39:04.824Z,17.03
2023-01-13T20:42:28.405Z,17.83
2023-01-13T20:45:31.816Z,17.70
2023-01-13T20:48:36.132Z,19.75
2023-01-13T20:51:42.795Z,17.60
2023-01-13T20:54:48.106Z,17.90
2023-01-13T20:57:52.030Z,19.98
2023-01-13T21:00:59.435Z,20.33
2023-01-13T21:04:02.988Z,19.08
2023-01-13T21:07:06.360Z,18.10
2023-01-13T21:10:11.726Z,23.20
2023-01-13T21:13:33.380Z,19.27
2023-01-13T21:16:36.584Z,17.83
2023-01-13T21:19:39.658Z,18.60
2023-01-13T21:22:46.902Z,18.38
2023-01-13T21:25:49.608Z,17.90
2023-01-13T21:28:57.741Z,19.83
2023-01-13T21:32:00.741Z,19.05
2023-01-13T21:35:03.558Z,17.52
2023-01-13T21:38:06.403Z,18.88
2023-01-13T21:41:10.121Z,17.30
2023-01-13T21:44:37.127Z,18.27
2023-01-13T21:47:48.858Z,20.98
2023-01-13T21:50:51.614Z,22.42
2023-01-13T21:53:55.406Z,21.33
2023-01-13T21:56:59.513Z,20.40
2023-01-13T22:00:03.150Z,19.67
2023-01-13T22:03:09.338Z,20.90
2023-01-13T22:06:12.328Z,18.23
2023-01-13T22:09:15.293Z,18.38
2023-01-13T22:12:22.747Z,19.27
2023-01-13T22:15:28.063Z,18.08
2023-01-13T22:18:30.608Z,20.50
2023-01-13T22:21:33.493Z,20.40
2023-01-13T22:24:39.111Z,17.05
2023-01-13T22:27:44.441Z,20.37
2023-01-13T22:30:49.869Z,20.23
2023-01-13T22:33:56.129Z,23.60
2023-01-13T22:36:59.823Z,20.35
2023-01-13T22:40:04.082Z,20.67
2023-01-13T22:43:09.312Z,20.17
2023-01-13T22:46:13.430Z,22.02
2023-01-13T22:49:17.438Z,17.17
2023-01-13T22:52:20.350Z,19.42
2023-01-13T22:55:24.496Z,19.48
2023-01-13T22:58:27.413Z,22.47
2023-01-13T23:01:33.065Z,20.42
2023-01-13T23:04:36.175Z,20.35
2023-01-13T23:07:38.988Z,20.00
2023-01-13T23:10:42.725Z,20.60
2023-01-13T23:13:46.323Z,22.10
2023-01-13T23:16:48.985Z,21.50
2023-01-13T23:19:52.249Z,20.10
2023-01-13T23:22:55.161Z,21.08
2023-01-13T23:25:57.731Z,22.05
2023-01-13T23:29:06.706Z,20.13
2023-01-13T23:32:09.319Z,22.17
2023-01-13T23:35:12.416Z,20.73
2023-01-13T23:38:15.026Z,23.00
2023-01-13T23:41:20.681Z,23.35
2023-01-13T23:44:23.502Z,24.33
2023-01-13T23:47:26.257Z,23.17
2023-01-13T23:50:29.920Z,23.00
2023-01-13T23:53:35.457Z,20.50
2023-01-13T23:56:40.043Z,21.20
2023-01-13T23:59:42.769Z,24.83
